createdAt,value
2022-10-19T00:01:35.144Z,0
2022-10-19T00:03:36.509Z,0
2022-10-19T00:05:37.711Z,0
2022-10-19T00:07:39.241Z,0
2022-10-19T00:09:40.985Z,0
2022-10-19T00:11:41.876Z,0
2022-10-19T00:13:42.775Z,0
2022-10-19T00:15:44.169Z,0
2022-10-19T00:17:45.240Z,0
2022-10-19T00:19:47.011Z,0
2022-10-19T00:21:48.131Z,0
2022-10-19T00:23:49.344Z,0
2022-10-19T00:25:50.488Z,0
2022-10-19T00:27:52.081Z,0
2022-10-19T00:29:53.933Z,0
2022-10-19T00:31:55.148Z,0
2022-10-19T00:33:56.867Z,0
2022-10-19T00:35:58.746Z,0
2022-10-19T00:37:59.701Z,0
2022-10-19T00:40:00.812Z,0
2022-10-19T00:42:02.010Z,0
2022-10-19T00:44:03.342Z,0
2022-10-19T00:46:04.408Z,0
2022-10-19T00:48:05.869Z,0
2022-10-19T00:50:07.531Z,0
2022-10-19T00:52:09.382Z,0
2022-10-19T00:54:10.935Z,0
2022-10-19T00:56:12.390Z,0
2022-10-19T00:58:13.497Z,0
2022-10-19T01:00:14.895Z,0
2022-10-19T01:02:16.308Z,0
2022-10-19T01:04:17.383Z,0
2022-10-19T01:06:18.326Z,0
2022-10-19T01:08:19.455Z,0
2022-10-19T01:10:20.598Z,0
2022-10-19T01:12:22.346Z,0
2022-10-19T01:14:23.269Z,0
2022-10-19T01:16:24.729Z,0
2022-10-19T01:18:26.614Z,0
2022-10-19T01:20:27.514Z,0
2022-10-19T01:22:28.679Z,0
2022-10-19T01:24:29.880Z,0
2022-10-19T01:28:32.258Z,0
2022-10-19T01:30:33.628Z,0
2022-10-19T01:32:34.815Z,0
2022-10-19T01:34:35.723Z,0
2022-10-19T01:38:38.649Z,0
2022-10-19T01:40:40.206Z,0
2022-10-19T01:42:41.911Z,0
2022-10-19T01:44:42.886Z,0
2022-10-19T01:46:44.549Z,0
2022-10-19T01:48:45.473Z,0
2022-10-19T01:50:46.779Z,2.106
2022-10-19T01:52:48.444Z,0.14
2022-10-19T01:54:49.494Z,0.702
2022-10-19T01:56:51.003Z,0
2022-10-19T01:58:52.753Z,0
2022-10-19T02:00:54.048Z,0
2022-10-19T02:02:55.764Z,0
2022-10-19T02:04:57.033Z,0
2022-10-19T02:06:58.133Z,0
2022-10-19T02:08:59.346Z,0
2022-10-19T02:11:00.660Z,0
2022-10-19T02:13:02.208Z,0
2022-10-19T02:15:03.826Z,0
2022-10-19T02:17:05.049Z,0
2022-10-19T02:19:06.396Z,0
2022-10-19T02:21:07.616Z,0
2022-10-19T02:23:09.292Z,0
2022-10-19T02:25:10.316Z,0
2022-10-19T02:27:11.823Z,0
2022-10-19T02:29:13.357Z,0
2022-10-19T02:31:15.120Z,0
2022-10-19T02:33:16.117Z,0
2022-10-19T02:35:17.807Z,0
2022-10-19T02:39:20.759Z,0
2022-10-19T02:43:24.410Z,0
2022-10-19T02:45:25.627Z,0
2022-10-19T02:47:27.498Z,0
2022-10-19T02:49:28.956Z,0
2022-10-19T02:53:31.347Z,0.702
2022-10-19T02:55:32.839Z,0
2022-10-19T02:57:34.022Z,0
2022-10-19T02:59:34.820Z,0
2022-10-19T03:01:35.849Z,0
2022-10-19T03:03:37.210Z,0
2022-10-19T03:05:38.372Z,0
2022-10-19T03:07:39.517Z,0
2022-10-19T03:09:40.755Z,0
2022-10-19T03:11:42.340Z,0
2022-10-19T03:13:43.527Z,0
2022-10-19T03:15:45.064Z,0
2022-10-19T03:17:46.693Z,0
2022-10-19T03:19:47.760Z,0
2022-10-19T03:21:49.044Z,0
2022-10-19T03:23:50.468Z,0
2022-10-19T03:25:51.900Z,0
2022-10-19T03:27:53.300Z,0.842
2022-10-19T03:29:54.497Z,2.246
2022-10-19T03:31:55.752Z,0.842
2022-10-19T03:33:57.160Z,0
2022-10-19T03:35:58.446Z,1.544
2022-10-19T03:38:00.030Z,0.14
2022-10-19T03:40:01.629Z,0
2022-10-19T03:42:03.043Z,0
2022-10-19T03:44:04.633Z,0.14
2022-10-19T03:46:05.563Z,0
2022-10-19T03:48:07.288Z,0.14
2022-10-19T03:50:08.557Z,0.982
2022-10-19T03:52:09.714Z,0.982
2022-10-19T03:54:10.763Z,0.14
2022-10-19T03:56:12.213Z,0
2022-10-19T03:58:13.958Z,0
2022-10-19T04:00:15.388Z,0
2022-10-19T04:02:16.995Z,0
2022-10-19T04:04:18.515Z,0
2022-10-19T04:06:21.362Z,0
2022-10-19T04:08:21.352Z,0
2022-10-19T04:10:23.010Z,0
2022-10-19T04:12:23.931Z,0
2022-10-19T04:14:31.505Z,0
2022-10-19T04:16:26.922Z,0
2022-10-19T04:18:28.347Z,0
2022-10-19T04:20:29.334Z,0
2022-10-19T04:21:13.151Z,0
2022-10-19T04:23:14.990Z,0
2022-10-19T04:25:16.671Z,0
2022-10-19T04:29:19.102Z,0
2022-10-19T04:31:20.732Z,0
2022-10-19T04:33:21.828Z,0
2022-10-19T04:35:23.498Z,0
2022-10-19T04:37:24.926Z,0
2022-10-19T04:39:26.807Z,0
2022-10-19T04:41:27.823Z,0
2022-10-19T04:43:29.303Z,0
2022-10-19T04:45:30.606Z,0
2022-10-19T04:47:32.203Z,0
2022-10-19T04:49:33.248Z,0
2022-10-19T04:51:34.669Z,0
2022-10-19T04:53:36.105Z,0
2022-10-19T04:55:37.014Z,0
2022-10-19T04:57:38.511Z,0
2022-10-19T04:59:39.824Z,0
2022-10-19T05:01:44.661Z,0
2022-10-19T05:03:42.275Z,0
2022-10-19T05:05:43.624Z,0
2022-10-19T05:07:44.596Z,0
2022-10-19T05:09:46.066Z,0
2022-10-19T05:11:47.305Z,0
2022-10-19T05:13:48.573Z,0
2022-10-19T05:15:50.160Z,0
2022-10-19T05:17:51.290Z,0
2022-10-19T05:19:53.083Z,0
2022-10-19T05:21:54.540Z,0
2022-10-19T05:23:55.857Z,0
2022-10-19T05:25:57.429Z,0
2022-10-19T05:27:58.422Z,0
2022-10-19T05:30:00.137Z,0
2022-10-19T05:32:01.292Z,0
2022-10-19T05:34:02.787Z,0
2022-10-19T05:36:03.742Z,0
2022-10-19T05:38:05.619Z,0
2022-10-19T05:40:06.783Z,0
2022-10-19T05:42:08.533Z,0
2022-10-19T05:44:10.394Z,0
2022-10-19T05:46:12.081Z,0
2022-10-19T05:48:13.122Z,0
2022-10-19T05:50:14.326Z,0
2022-10-19T05:52:16.207Z,0
2022-10-19T05:54:18.046Z,0
2022-10-19T05:56:19.774Z,0
2022-10-19T06:00:22.501Z,0
2022-10-19T06:02:23.975Z,0
2022-10-19T06:04:25.480Z,0
2022-10-19T06:06:26.403Z,0
2022-10-19T06:10:28.433Z,0
2022-10-19T06:12:30.140Z,0
2022-10-19T06:14:31.133Z,0
2022-10-19T06:16:32.542Z,0
2022-10-19T06:18:33.655Z,0
2022-10-19T06:20:34.997Z,0
2022-10-19T06:22:36.434Z,0
2022-10-19T06:24:37.362Z,0
2022-10-19T06:26:39.169Z,0
2022-10-19T06:28:40.146Z,0
2022-10-19T06:30:41.700Z,0
2022-10-19T06:32:43.391Z,0
2022-10-19T06:34:44.525Z,0
2022-10-19T06:36:46.062Z,0.702
2022-10-19T06:38:47.033Z,0
2022-10-19T06:40:48.125Z,2.246
2022-10-19T06:42:49.779Z,1.544
2022-10-19T06:44:51.345Z,0.14
2022-10-19T06:46:52.323Z,0.702
2022-10-19T06:48:53.898Z,0
2022-10-19T06:52:56.252Z,0
2022-10-19T06:54:58.168Z,0
2022-10-19T06:56:59.659Z,0
2022-10-19T06:59:01.043Z,0
2022-10-19T07:01:02.284Z,0
2022-10-19T07:03:03.086Z,0
2022-10-19T07:05:07.042Z,1.965
2022-10-19T07:07:06.098Z,0.702
2022-10-19T07:09:07.369Z,0
2022-10-19T07:11:09.183Z,0.561
2022-10-19T07:15:12.257Z,1.825
2022-10-19T07:17:14.084Z,1.965
2022-10-19T07:19:15.240Z,2.808
2022-10-19T07:21:17.010Z,1.965
2022-10-19T07:23:18.080Z,4.773
2022-10-19T07:25:19.420Z,3.088
2022-10-19T07:27:20.576Z,0.421
2022-10-19T07:29:21.730Z,0.421
2022-10-19T07:31:23.006Z,0.702
2022-10-19T07:33:24.670Z,1.263
2022-10-19T07:35:26.406Z,2.246
2022-10-19T07:37:28.027Z,0
2022-10-19T07:39:28.962Z,1.123
2022-10-19T07:41:30.373Z,0.421
2022-10-19T07:43:31.659Z,2.246
2022-10-19T07:45:32.739Z,1.684
2022-10-19T07:47:34.312Z,0.28
2022-10-19T07:49:35.118Z,1.965
2022-10-19T07:53:38.396Z,1.684
2022-10-19T07:55:39.907Z,1.684
2022-10-19T07:57:43.599Z,2.808
2022-10-19T07:59:43.141Z,0.561
2022-10-19T08:01:44.744Z,0
2022-10-19T08:05:47.489Z,3.51
2022-10-19T08:07:48.938Z,0.28
2022-10-19T08:09:53.532Z,2.386
2022-10-19T08:11:51.951Z,2.106
2022-10-19T08:13:53.812Z,3.51
2022-10-19T08:15:55.608Z,2.386
2022-10-19T08:17:57.275Z,2.667
2022-10-19T08:19:58.550Z,1.263
2022-10-19T08:24:01.352Z,1.965
2022-10-19T08:26:02.446Z,3.51
2022-10-19T08:28:03.575Z,2.246
2022-10-19T08:30:05.178Z,1.263
2022-10-19T08:32:06.080Z,2.667
2022-10-19T08:34:07.028Z,0.421
2022-10-19T08:36:08.358Z,2.246
2022-10-19T08:38:10.158Z,1.404
2022-10-19T08:40:11.745Z,3.088
2022-10-19T08:42:13.207Z,1.263
2022-10-19T08:44:14.812Z,0.14
2022-10-19T08:46:15.803Z,1.544
2022-10-19T08:48:17.465Z,1.263
2022-10-19T08:50:18.653Z,2.808
2022-10-19T08:52:20.084Z,4.212
2022-10-19T08:54:21.569Z,0.982
2022-10-19T08:56:39.223Z,1.263
2022-10-19T08:58:24.170Z,1.825
2022-10-19T09:00:25.962Z,3.79
2022-10-19T09:02:26.820Z,0.421
2022-10-19T09:06:29.731Z,0.14
2022-10-19T09:08:30.975Z,0.702
2022-10-19T09:10:32.775Z,2.527
2022-10-19T09:12:33.911Z,2.948
2022-10-19T09:16:36.307Z,0.842
2022-10-19T09:18:37.983Z,3.79
2022-10-19T09:20:39.134Z,1.825
2022-10-19T09:22:40.909Z,0.28
2022-10-19T09:24:42.623Z,0.702
2022-10-19T09:26:44.102Z,2.808
2022-10-19T09:28:45.429Z,3.65
2022-10-19T09:30:46.501Z,3.79
2022-10-19T09:32:48.078Z,1.263
2022-10-19T09:34:49.183Z,5.054
2022-10-19T09:38:52.480Z,6.177
2022-10-19T09:40:53.544Z,3.931
2022-10-19T09:42:54.560Z,2.808
2022-10-19T09:44:56.060Z,3.65
2022-10-19T09:48:59.413Z,5.475
2022-10-19T09:51:00.443Z,4.633
2022-10-19T09:53:02.113Z,5.756
2022-10-19T09:55:03.335Z,2.386
2022-10-19T09:59:05.819Z,3.369
2022-10-19T10:01:07.592Z,3.229
2022-10-19T10:03:08.937Z,5.194
2022-10-19T10:05:10.102Z,4.773
2022-10-19T10:07:11.527Z,8.143
2022-10-19T10:09:12.537Z,1.684
2022-10-19T10:11:14.265Z,2.246
2022-10-19T10:13:16.038Z,2.386
2022-10-19T10:15:17.802Z,3.65
2022-10-19T10:17:18.752Z,0.982
2022-10-19T10:19:22.255Z,3.931
2022-10-19T10:21:25.128Z,3.369
2022-10-19T10:23:22.769Z,3.65
2022-10-19T10:25:24.011Z,2.948
2022-10-19T10:27:25.001Z,4.914
2022-10-19T10:29:26.258Z,2.106
2022-10-19T10:31:27.781Z,5.335
2022-10-19T10:33:40.600Z,4.492
2022-10-19T10:35:29.735Z,4.773
2022-10-19T10:37:31.239Z,1.123
2022-10-19T10:39:32.403Z,4.071
2022-10-19T10:41:33.992Z,2.948
2022-10-19T10:43:35.839Z,3.088
2022-10-19T10:47:39.197Z,3.79
2022-10-19T10:49:40.902Z,1.263
2022-10-19T10:51:42.241Z,2.246
2022-10-19T10:53:43.116Z,3.79
2022-10-19T10:55:44.677Z,2.667
2022-10-19T10:57:45.956Z,1.965
2022-10-19T10:59:47.302Z,2.527
2022-10-19T11:01:48.310Z,0.561
2022-10-19T11:03:49.648Z,5.054
2022-10-19T11:05:51.062Z,6.739
2022-10-19T11:06:34.813Z,4.633
2022-10-19T11:08:36.370Z,6.318
2022-10-19T11:10:38.113Z,3.369
2022-10-19T11:14:40.312Z,4.773
2022-10-19T11:16:41.361Z,3.65
2022-10-19T11:18:42.324Z,6.177
2022-10-19T11:20:44.098Z,4.071
2022-10-19T11:24:48.534Z,4.492
2022-10-19T11:26:48.422Z,4.633
2022-10-19T11:28:49.540Z,0.28
2022-10-19T11:30:51.040Z,3.51
2022-10-19T11:34:54.220Z,6.037
2022-10-19T11:36:55.417Z,2.948
2022-10-19T11:38:57.206Z,5.194
2022-10-19T11:41:16.710Z,5.896
2022-10-19T11:42:59.921Z,0.14
2022-10-19T11:45:00.777Z,3.369
2022-10-19T11:47:01.972Z,2.948
2022-10-19T11:49:03.160Z,4.773
2022-10-19T11:51:17.248Z,2.808
2022-10-19T11:53:06.551Z,7.3
2022-10-19T11:55:08.424Z,5.054
2022-10-19T11:57:11.573Z,2.667
2022-10-19T11:59:10.564Z,2.808
2022-10-19T12:01:11.926Z,2.106
2022-10-19T12:03:13.577Z,3.51
2022-10-19T12:05:15.211Z,9.126
2022-10-19T12:07:16.329Z,3.65
2022-10-19T12:09:17.941Z,3.65
2022-10-19T12:11:18.918Z,6.037
2022-10-19T12:13:20.268Z,8.002
2022-10-19T12:15:21.606Z,4.492
2022-10-19T12:17:23.230Z,6.739
2022-10-19T12:19:24.244Z,2.948
2022-10-19T12:21:25.181Z,1.825
2022-10-19T12:23:26.562Z,3.65
2022-10-19T12:25:28.094Z,2.808
2022-10-19T12:27:29.604Z,5.054
2022-10-19T12:29:30.701Z,4.352
2022-10-19T12:31:32.033Z,4.212
2022-10-19T12:33:33.822Z,5.475
2022-10-19T12:35:35.119Z,6.037
2022-10-19T12:37:36.912Z,3.229
2022-10-19T12:39:37.760Z,2.667
2022-10-19T12:41:39.439Z,3.369
2022-10-19T12:43:40.733Z,4.773
2022-10-19T12:45:41.916Z,4.914
2022-10-19T12:47:42.791Z,3.229
2022-10-19T12:49:44.343Z,0.561
2022-10-19T12:51:45.787Z,3.369
2022-10-19T12:53:46.649Z,7.3
2022-10-19T12:55:47.805Z,4.071
2022-10-19T12:57:49.366Z,4.212
2022-10-19T12:59:50.452Z,3.931
2022-10-19T13:01:51.933Z,4.914
2022-10-19T13:05:54.423Z,6.879
2022-10-19T13:07:55.602Z,5.756
2022-10-19T13:09:57.357Z,2.948
2022-10-19T13:11:59.226Z,5.054
2022-10-19T13:16:01.770Z,3.51
2022-10-19T13:18:03.314Z,3.931
2022-10-19T13:20:04.779Z,1.825
2022-10-19T13:22:06.347Z,2.246
2022-10-19T13:24:07.585Z,4.071
2022-10-19T13:28:10.494Z,4.633
2022-10-19T13:30:11.716Z,2.106
2022-10-19T13:32:12.951Z,1.965
2022-10-19T13:34:14.211Z,6.177
2022-10-19T13:36:15.660Z,4.212
2022-10-19T13:38:16.762Z,4.071
2022-10-19T13:40:21.967Z,4.773
2022-10-19T13:42:19.931Z,3.088
2022-10-19T13:44:21.809Z,2.386
2022-10-19T13:48:24.977Z,3.369
2022-10-19T13:50:26.044Z,4.773
2022-10-19T13:52:27.606Z,4.633
2022-10-19T13:54:28.642Z,6.037
2022-10-19T13:56:29.665Z,4.071
2022-10-19T13:58:31.402Z,2.808
2022-10-19T14:00:32.538Z,5.616
2022-10-19T14:02:34.546Z,2.948
2022-10-19T14:04:35.168Z,7.02
2022-10-19T14:06:36.239Z,5.616
2022-10-19T14:08:37.739Z,4.071
2022-10-19T14:11:00.896Z,3.79
2022-10-19T14:12:41.237Z,1.123
2022-10-19T14:14:42.914Z,0.28
2022-10-19T14:16:44.408Z,4.914
2022-10-19T14:18:46.333Z,3.369
2022-10-19T14:20:48.119Z,3.79
2022-10-19T14:22:49.856Z,0.982
2022-10-19T14:24:50.977Z,5.756
2022-10-19T14:26:52.001Z,3.51
2022-10-19T14:28:53.753Z,7.3
2022-10-19T14:30:54.735Z,7.581
2022-10-19T14:32:56.893Z,5.616
2022-10-19T14:34:57.148Z,5.194
2022-10-19T14:36:58.930Z,4.352
2022-10-19T14:38:59.900Z,0.982
2022-10-19T14:41:00.811Z,2.667
2022-10-19T14:43:02.465Z,4.914
2022-10-19T14:45:04.025Z,4.071
2022-10-19T14:47:05.334Z,6.037
2022-10-19T14:49:06.587Z,11.091
2022-10-19T14:51:08.370Z,8.002
2022-10-19T14:53:09.460Z,6.598
2022-10-19T14:57:11.875Z,0.842
2022-10-19T14:59:12.988Z,0.421
2022-10-19T15:01:14.073Z,6.177
2022-10-19T15:03:15.694Z,6.177
2022-10-19T15:05:16.928Z,0.842
2022-10-19T15:07:18.246Z,3.931
2022-10-19T15:09:24.590Z,3.51
2022-10-19T15:11:20.638Z,3.931
2022-10-19T15:13:21.771Z,6.318
2022-10-19T15:15:23.342Z,6.598
2022-10-19T15:17:24.658Z,5.756
2022-10-19T15:19:25.943Z,6.458
2022-10-19T15:21:28.576Z,2.808
2022-10-19T15:23:28.443Z,5.896
2022-10-19T15:25:29.391Z,1.263
2022-10-19T15:29:32.329Z,2.246
2022-10-19T15:31:34.170Z,6.458
2022-10-19T15:33:35.417Z,3.229
2022-10-19T15:35:37.249Z,3.229
2022-10-19T15:39:43.385Z,3.65
2022-10-19T15:41:41.640Z,5.194
2022-10-19T15:43:43.239Z,6.318
2022-10-19T15:45:44.982Z,5.616
2022-10-19T15:47:46.431Z,3.931
2022-10-19T15:49:48.011Z,6.598
2022-10-19T15:51:49.130Z,3.088
2022-10-19T15:53:50.111Z,1.544
2022-10-19T15:55:51.729Z,2.527
2022-10-19T15:57:52.578Z,4.071
2022-10-19T15:59:53.660Z,1.965
2022-10-19T16:01:56.241Z,2.527
2022-10-19T16:03:56.308Z,0.421
2022-10-19T16:05:57.509Z,1.825
2022-10-19T16:07:58.942Z,0.702
2022-10-19T16:10:00.809Z,1.404
2022-10-19T16:12:02.305Z,1.825
2022-10-19T16:14:03.743Z,0
2022-10-19T16:16:10.288Z,0
2022-10-19T16:18:06.647Z,0
2022-10-19T16:20:07.944Z,0
2022-10-19T16:22:09.293Z,1.825
2022-10-19T16:24:10.335Z,1.123
2022-10-19T16:26:12.072Z,0.28
2022-10-19T16:28:13.070Z,1.684
2022-10-19T16:30:14.952Z,3.65
2022-10-19T16:32:16.789Z,1.825
2022-10-19T16:34:18.218Z,3.79
2022-10-19T16:36:19.183Z,1.684
2022-10-19T16:38:20.425Z,1.404
2022-10-19T16:40:22.161Z,1.684
2022-10-19T16:42:23.762Z,1.263
2022-10-19T16:44:24.469Z,0.561
2022-10-19T16:46:25.477Z,0
2022-10-19T16:48:26.558Z,0
2022-10-19T16:50:27.802Z,0
2022-10-19T16:52:28.752Z,0
2022-10-19T16:54:30.621Z,0
2022-10-19T16:56:32.571Z,0
2022-10-19T16:58:33.893Z,0
2022-10-19T17:00:34.928Z,0
2022-10-19T17:02:36.730Z,0
2022-10-19T17:06:38.828Z,0
2022-10-19T17:09:02.604Z,0
2022-10-19T17:10:42.440Z,0
2022-10-19T17:12:43.720Z,0
2022-10-19T17:14:44.932Z,0
2022-10-19T17:16:46.505Z,0
2022-10-19T17:20:49.927Z,0
2022-10-19T17:22:50.855Z,0
2022-10-19T17:24:52.641Z,0
2022-10-19T17:26:53.797Z,0
2022-10-19T17:28:54.925Z,0
2022-10-19T17:30:56.214Z,0
2022-10-19T17:32:58.109Z,0
2022-10-19T17:34:59.873Z,0
2022-10-19T17:37:00.919Z,0
2022-10-19T17:39:01.934Z,0
2022-10-19T17:41:03.853Z,0
2022-10-19T17:43:05.528Z,0
2022-10-19T17:45:07.313Z,0
2022-10-19T17:47:08.669Z,0
2022-10-19T17:49:10.412Z,0
2022-10-19T17:53:12.969Z,0
2022-10-19T17:53:56.847Z,0
2022-10-19T17:57:59.354Z,0
2022-10-19T18:00:00.585Z,0
2022-10-19T18:02:01.568Z,0
2022-10-19T18:04:03.204Z,0
2022-10-19T18:06:06.797Z,0
2022-10-19T18:08:06.836Z,0
2022-10-19T18:10:08.375Z,0
2022-10-19T18:14:10.996Z,0
2022-10-19T18:16:12.186Z,0
2022-10-19T18:20:15.946Z,0
2022-10-19T18:22:17.538Z,0
2022-10-19T18:24:19.099Z,0
2022-10-19T18:26:20.112Z,0
2022-10-19T18:30:22.797Z,0
2022-10-19T18:32:24.288Z,0
2022-10-19T18:34:26.142Z,0
2022-10-19T18:36:27.118Z,0
2022-10-19T18:40:29.976Z,0
2022-10-19T18:42:31.868Z,0
2022-10-19T18:44:33.695Z,0
2022-10-19T18:46:34.954Z,0
2022-10-19T18:48:36.458Z,0
2022-10-19T18:50:37.878Z,0
2022-10-19T18:52:39.287Z,0
2022-10-19T18:54:41.026Z,0
2022-10-19T18:56:42.822Z,0
2022-10-19T18:58:44.085Z,0
2022-10-19T19:00:45.746Z,0
2022-10-19T19:02:47.323Z,0
2022-10-19T19:04:47.696Z,0
2022-10-19T19:06:48.988Z,0
2022-10-19T19:08:50.353Z,0
2022-10-19T19:10:51.817Z,0
2022-10-19T19:12:53.577Z,0
2022-10-19T19:14:55.413Z,0
2022-10-19T19:16:57.137Z,0
2022-10-19T19:18:58.961Z,0
2022-10-19T19:21:00.121Z,0
2022-10-19T19:23:01.339Z,0
2022-10-19T19:25:03.265Z,0
2022-10-19T19:27:04.539Z,0
2022-10-19T19:31:07.527Z,0
2022-10-19T19:33:09.120Z,0
2022-10-19T19:35:10.215Z,0
2022-10-19T19:39:13.752Z,0
2022-10-19T19:41:15.111Z,0
2022-10-19T19:43:16.629Z,0
2022-10-19T19:45:17.850Z,0
2022-10-19T19:47:19.505Z,0
2022-10-19T19:49:20.974Z,0
2022-10-19T19:51:22.715Z,0
2022-10-19T19:53:24.461Z,0
2022-10-19T19:55:25.440Z,0
2022-10-19T19:57:27.269Z,0
2022-10-19T19:59:28.724Z,0
2022-10-19T20:01:30.023Z,0
2022-10-19T20:03:31.442Z,0
2022-10-19T20:05:32.403Z,0
2022-10-19T20:07:34.157Z,0
2022-10-19T20:11:41.194Z,0
2022-10-19T20:13:37.636Z,1.684
2022-10-19T20:15:39.305Z,2.246
2022-10-19T20:17:40.707Z,0.702
2022-10-19T20:19:42.619Z,0
2022-10-19T20:21:43.883Z,0
2022-10-19T20:23:44.833Z,1.263
2022-10-19T20:25:46.518Z,1.263
2022-10-19T20:27:48.238Z,1.404
2022-10-19T20:29:49.715Z,0
2022-10-19T20:31:51.310Z,0.421
2022-10-19T20:33:52.466Z,0
2022-10-19T20:35:53.757Z,0.14
2022-10-19T20:37:55.406Z,0
2022-10-19T20:39:56.419Z,0
2022-10-19T20:41:58.014Z,0
2022-10-19T20:43:59.394Z,0
2022-10-19T20:46:01.147Z,0
2022-10-19T20:48:02.745Z,0
2022-10-19T20:50:04.204Z,0
2022-10-19T20:54:06.368Z,0.28
2022-10-19T20:56:07.472Z,0.982
2022-10-19T20:58:08.491Z,0
2022-10-19T21:00:09.645Z,0
2022-10-19T21:02:10.993Z,0
2022-10-19T21:04:12.728Z,0
2022-10-19T21:06:14.410Z,0.14
2022-10-19T21:08:15.506Z,0
2022-10-19T21:10:16.687Z,0
2022-10-19T21:12:17.951Z,0
2022-10-19T21:14:21.149Z,0
2022-10-19T21:16:20.251Z,0
2022-10-19T21:18:21.772Z,0
2022-10-19T21:20:22.741Z,0
2022-10-19T21:22:24.477Z,0
2022-10-19T21:24:26.221Z,0
2022-10-19T21:26:27.903Z,0
2022-10-19T21:28:29.154Z,0
2022-10-19T21:30:30.335Z,0
2022-10-19T21:32:31.489Z,0
2022-10-19T21:34:33.218Z,1.123
2022-10-19T21:36:34.329Z,1.825
2022-10-19T21:38:35.357Z,1.684
2022-10-19T21:40:37.224Z,0
2022-10-19T21:42:38.429Z,0.842
2022-10-19T21:44:39.563Z,0
2022-10-19T21:46:41.129Z,0
2022-10-19T21:48:42.953Z,0
2022-10-19T21:50:44.878Z,1.965
2022-10-19T21:52:46.746Z,0
2022-10-19T21:54:48.252Z,0
2022-10-19T21:56:49.826Z,1.404
2022-10-19T21:58:51.672Z,1.825
2022-10-19T22:00:53.431Z,1.825
2022-10-19T22:02:54.580Z,1.404
2022-10-19T22:04:55.966Z,0
2022-10-19T22:06:56.919Z,0
2022-10-19T22:08:58.295Z,0
2022-10-19T22:11:00.098Z,0
2022-10-19T22:13:01.089Z,0.28
2022-10-19T22:15:02.254Z,0
2022-10-19T22:17:03.731Z,0
2022-10-19T22:19:04.722Z,0
2022-10-19T22:21:06.466Z,0
2022-10-19T22:25:09.765Z,0
2022-10-19T22:27:11.242Z,0
2022-10-19T22:29:12.894Z,0
2022-10-19T22:31:14.733Z,0
2022-10-19T22:35:16.918Z,0
2022-10-19T22:37:18.397Z,0
2022-10-19T22:39:20.052Z,0
2022-10-19T22:41:21.197Z,0
2022-10-19T22:43:23.017Z,0
2022-10-19T22:45:24.106Z,0
2022-10-19T22:47:25.878Z,0
2022-10-19T22:49:27.634Z,0
2022-10-19T22:51:29.425Z,0
2022-10-19T22:53:30.522Z,0
2022-10-19T22:55:31.515Z,0
2022-10-19T22:57:32.747Z,0
2022-10-19T22:59:34.149Z,0
2022-10-19T23:01:35.262Z,0
2022-10-19T23:03:36.305Z,0
2022-10-19T23:07:39.189Z,0
2022-10-19T23:09:40.473Z,0
2022-10-19T23:11:42.150Z,0
2022-10-19T23:13:43.536Z,0
2022-10-19T23:17:46.496Z,0
2022-10-19T23:19:48.003Z,0
2022-10-19T23:21:49.170Z,0
2022-10-19T23:23:50.527Z,0
2022-10-19T23:25:51.603Z,0
2022-10-19T23:27:52.860Z,0
2022-10-19T23:29:54.019Z,0
2022-10-19T23:31:55.128Z,0
2022-10-19T23:33:56.682Z,0
2022-10-19T23:35:58.167Z,0.14
2022-10-19T23:38:00.063Z,0
2022-10-19T23:40:01.128Z,0
2022-10-19T23:42:03.018Z,0
2022-10-19T23:44:04.358Z,0.28
2022-10-19T23:46:05.877Z,0
2022-10-19T23:48:06.975Z,0
2022-10-19T23:50:08.577Z,0
2022-10-19T23:52:10.133Z,0
2022-10-19T23:54:11.644Z,0
2022-10-19T23:56:13.038Z,0
2022-10-19T23:58:14.957Z,0
